sensor_id;sensor_type;location;lat;lon;timestamp;pressure;altitude;pressure_sealevel;temperature;humidity
10604;BME280;5349;41.554;23.274;2023-04-06T00:01:25;99275.31;;;5.69;70.03
10604;BME280;5349;41.554;23.274;2023-04-06T00:03:52;99270.06;;;5.53;70.83
10604;BME280;5349;41.554;23.274;2023-04-06T00:06:18;99270.53;;;5.56;71.50
10604;BME280;5349;41.554;23.274;2023-04-06T00:08:45;99266.63;;;5.44;71.73
10604;BME280;5349;41.554;23.274;2023-04-06T00:11:12;99266.25;;;5.47;71.01
10604;BME280;5349;41.554;23.274;2023-04-06T00:13:39;99265.94;;;5.42;71.92
10604;BME280;5349;41.554;23.274;2023-04-06T00:16:07;99268.09;;;5.47;72.40
10604;BME280;5349;41.554;23.274;2023-04-06T00:18:34;99258.50;;;5.46;71.62
10604;BME280;5349;41.554;23.274;2023-04-06T00:21:02;99256.38;;;5.41;72.60
10604;BME280;5349;41.554;23.274;2023-04-06T00:23:30;99260.00;;;5.40;72.44
10604;BME280;5349;41.554;23.274;2023-04-06T00:25:57;99257.38;;;5.32;73.07
10604;BME280;5349;41.554;23.274;2023-04-06T00:28:24;99260.34;;;5.29;73.38
10604;BME280;5349;41.554;23.274;2023-04-06T00:30:52;99262.47;;;5.42;71.90
10604;BME280;5349;41.554;23.274;2023-04-06T00:33:22;99250.56;;;5.38;72.69
10604;BME280;5349;41.554;23.274;2023-04-06T00:35:49;99232.25;;;5.20;72.81
10604;BME280;5349;41.554;23.274;2023-04-06T00:38:16;99250.69;;;5.52;73.15
10604;BME280;5349;41.554;23.274;2023-04-06T00:40:43;99245.06;;;5.55;73.17
10604;BME280;5349;41.554;23.274;2023-04-06T00:43:11;99247.41;;;5.50;72.19
10604;BME280;5349;41.554;23.274;2023-04-06T00:45:38;99251.53;;;5.53;72.23
10604;BME280;5349;41.554;23.274;2023-04-06T00:48:05;99254.31;;;5.59;71.76
10604;BME280;5349;41.554;23.274;2023-04-06T00:50:34;99252.19;;;5.63;72.43
10604;BME280;5349;41.554;23.274;2023-04-06T00:53:01;99252.00;;;5.64;72.66
10604;BME280;5349;41.554;23.274;2023-04-06T00:55:28;99247.06;;;5.61;72.22
10604;BME280;5349;41.554;23.274;2023-04-06T00:57:57;99245.41;;;5.60;72.14
10604;BME280;5349;41.554;23.274;2023-04-06T01:00:25;99242.50;;;5.31;73.16
10604;BME280;5349;41.554;23.274;2023-04-06T01:02:52;99250.75;;;5.28;74.49
10604;BME280;5349;41.554;23.274;2023-04-06T01:05:19;99248.09;;;5.28;74.09
10604;BME280;5349;41.554;23.274;2023-04-06T01:07:48;99250.56;;;5.22;75.13
10604;BME280;5349;41.554;23.274;2023-04-06T01:10:22;99250.56;;;5.14;76.99
10604;BME280;5349;41.554;23.274;2023-04-06T01:12:49;99240.00;;;5.14;76.65
10604;BME280;5349;41.554;23.274;2023-04-06T01:15:16;99240.03;;;4.98;77.98
10604;BME280;5349;41.554;23.274;2023-04-06T01:17:43;99234.75;;;5.06;77.65
10604;BME280;5349;41.554;23.274;2023-04-06T01:20:10;99230.13;;;5.08;77.92
10604;BME280;5349;41.554;23.274;2023-04-06T01:22:38;99228.63;;;5.05;78.79
10604;BME280;5349;41.554;23.274;2023-04-06T01:25:07;99225.81;;;5.07;79.18
10604;BME280;5349;41.554;23.274;2023-04-06T01:27:34;99224.97;;;5.06;77.89
10604;BME280;5349;41.554;23.274;2023-04-06T01:30:01;99224.84;;;5.00;79.40
10604;BME280;5349;41.554;23.274;2023-04-06T01:32:28;99227.63;;;4.98;79.16
10604;BME280;5349;41.554;23.274;2023-04-06T01:34:55;99228.78;;;4.96;79.82
10604;BME280;5349;41.554;23.274;2023-04-06T01:37:22;99215.72;;;4.86;80.99
10604;BME280;5349;41.554;23.274;2023-04-06T01:39:50;99213.25;;;4.93;80.41
10604;BME280;5349;41.554;23.274;2023-04-06T01:42:17;99224.66;;;4.93;80.76
10604;BME280;5349;41.554;23.274;2023-04-06T01:44:43;99220.69;;;4.89;81.35
10604;BME280;5349;41.554;23.274;2023-04-06T01:47:10;99217.06;;;4.98;79.85
10604;BME280;5349;41.554;23.274;2023-04-06T01:49:37;99223.19;;;4.99;79.86
10604;BME280;5349;41.554;23.274;2023-04-06T01:52:04;99212.44;;;5.00;81.30
10604;BME280;5349;41.554;23.274;2023-04-06T01:54:31;99211.44;;;4.93;80.51
10604;BME280;5349;41.554;23.274;2023-04-06T01:56:59;99209.31;;;4.97;80.30
10604;BME280;5349;41.554;23.274;2023-04-06T01:59:26;99206.31;;;4.92;79.56
10604;BME280;5349;41.554;23.274;2023-04-06T02:01:53;99212.41;;;4.92;79.17
10604;BME280;5349;41.554;23.274;2023-04-06T02:04:20;99205.81;;;4.88;80.68
10604;BME280;5349;41.554;23.274;2023-04-06T02:06:47;99201.53;;;4.87;80.94
10604;BME280;5349;41.554;23.274;2023-04-06T02:09:14;99202.19;;;4.81;79.95
10604;BME280;5349;41.554;23.274;2023-04-06T02:14:58;99204.34;;;4.86;80.32
10604;BME280;5349;41.554;23.274;2023-04-06T02:17:25;99195.59;;;4.62;79.78
10604;BME280;5349;41.554;23.274;2023-04-06T02:19:52;99192.94;;;4.77;80.73
10604;BME280;5349;41.554;23.274;2023-04-06T02:22:19;99195.59;;;4.70;83.44
10604;BME280;5349;41.554;23.274;2023-04-06T02:24:46;99194.91;;;4.52;88.38
10604;BME280;5349;41.554;23.274;2023-04-06T02:27:13;99193.25;;;4.51;91.19
10604;BME280;5349;41.554;23.274;2023-04-06T02:29:40;99188.94;;;4.34;100.00
10604;BME280;5349;41.554;23.274;2023-04-06T02:32:09;99192.06;;;4.29;100.00
10604;BME280;5349;41.554;23.274;2023-04-06T02:34:35;99191.06;;;4.22;100.00
10604;BME280;5349;41.554;23.274;2023-04-06T02:37:02;99194.03;;;4.27;100.00
10604;BME280;5349;41.554;23.274;2023-04-06T02:39:29;99193.53;;;4.32;100.00
10604;BME280;5349;41.554;23.274;2023-04-06T02:41:56;99192.88;;;4.30;100.00
10604;BME280;5349;41.554;23.274;2023-04-06T02:44:23;99181.69;;;4.36;100.00
10604;BME280;5349;41.554;23.274;2023-04-06T02:46:50;99179.22;;;4.34;100.00
10604;BME280;5349;41.554;23.274;2023-04-06T02:49:18;99185.66;;;4.48;100.00
10604;BME280;5349;41.554;23.274;2023-04-06T02:51:45;99194.88;;;4.36;100.00
10604;BME280;5349;41.554;23.274;2023-04-06T02:54:12;99194.56;;;4.39;100.00
10604;BME280;5349;41.554;23.274;2023-04-06T02:56:39;99192.56;;;4.41;100.00
10604;BME280;5349;41.554;23.274;2023-04-06T02:59:06;99191.25;;;4.45;96.77
10604;BME280;5349;41.554;23.274;2023-04-06T03:01:32;99191.59;;;4.50;95.37
10604;BME280;5349;41.554;23.274;2023-04-06T03:03:59;99187.31;;;4.57;95.62
10604;BME280;5349;41.554;23.274;2023-04-06T03:06:28;99190.63;;;4.59;100.00
10604;BME280;5349;41.554;23.274;2023-04-06T03:08:55;99138.72;;;4.10;100.00
10604;BME280;5349;41.554;23.274;2023-04-06T03:11:22;99187.97;;;4.43;100.00
10604;BME280;5349;41.554;23.274;2023-04-06T03:13:49;99188.94;;;4.42;100.00
10604;BME280;5349;41.554;23.274;2023-04-06T03:16:16;99197.03;;;4.48;100.00
10604;BME280;5349;41.554;23.274;2023-04-06T03:18:43;99190.13;;;4.55;98.14
10604;BME280;5349;41.554;23.274;2023-04-06T03:21:10;99193.94;;;4.69;91.94
10604;BME280;5349;41.554;23.274;2023-04-06T03:23:38;99180.22;;;4.81;89.81
10604;BME280;5349;41.554;23.274;2023-04-06T03:26:05;99187.50;;;4.87;86.78
10604;BME280;5349;41.554;23.274;2023-04-06T03:28:32;99186.31;;;4.89;85.84
10604;BME280;5349;41.554;23.274;2023-04-06T03:30:59;99190.28;;;4.85;84.61
10604;BME280;5349;41.554;23.274;2023-04-06T03:33:26;99186.84;;;4.93;84.83
10604;BME280;5349;41.554;23.274;2023-04-06T03:35:53;99177.75;;;4.95;83.98
10604;BME280;5349;41.554;23.274;2023-04-06T03:38:20;99178.06;;;4.92;84.06
10604;BME280;5349;41.554;23.274;2023-04-06T03:40:49;99178.59;;;4.88;84.46
10604;BME280;5349;41.554;23.274;2023-04-06T03:43:16;99176.78;;;4.73;84.92
10604;BME280;5349;41.554;23.274;2023-04-06T03:45:42;99186.66;;;4.63;85.11
10604;BME280;5349;41.554;23.274;2023-04-06T03:48:09;99188.66;;;4.61;85.29
10604;BME280;5349;41.554;23.274;2023-04-06T03:50:36;99189.47;;;4.61;88.35
10604;BME280;5349;41.554;23.274;2023-04-06T03:53:03;99189.13;;;4.56;87.61
10604;BME280;5349;41.554;23.274;2023-04-06T03:55:30;99167.81;;;4.42;91.25
10604;BME280;5349;41.554;23.274;2023-04-06T03:57:58;99188.13;;;4.49;100.00
10604;BME280;5349;41.554;23.274;2023-04-06T04:00:26;99185.66;;;4.48;100.00
10604;BME280;5349;41.554;23.274;2023-04-06T04:02:53;99171.44;;;4.33;100.00
10604;BME280;5349;41.554;23.274;2023-04-06T04:05:20;99183.50;;;4.43;100.00
10604;BME280;5349;41.554;23.274;2023-04-06T04:07:50;99176.72;;;4.33;100.00
10604;BME280;5349;41.554;23.274;2023-04-06T04:10:17;99180.31;;;4.24;100.00
10604;BME280;5349;41.554;23.274;2023-04-06T04:12:44;99180.66;;;4.29;100.00
10604;BME280;5349;41.554;23.274;2023-04-06T04:15:12;99184.66;;;4.41;100.00
10604;BME280;5349;41.554;23.274;2023-04-06T04:17:39;99185.13;;;4.44;100.00
10604;BME280;5349;41.554;23.274;2023-04-06T04:20:07;99195.88;;;4.43;100.00
10604;BME280;5349;41.554;23.274;2023-04-06T04:22:34;99191.72;;;4.40;100.00
10604;BME280;5349;41.554;23.274;2023-04-06T04:25:01;99194.56;;;4.39;100.00
10604;BME280;5349;41.554;23.274;2023-04-06T04:27:28;99190.56;;;4.35;100.00
10604;BME280;5349;41.554;23.274;2023-04-06T04:29:55;99192.22;;;4.36;100.00
10604;BME280;5349;41.554;23.274;2023-04-06T04:32:24;99186.66;;;4.47;100.00
10604;BME280;5349;41.554;23.274;2023-04-06T04:34:52;99196.25;;;4.64;100.00
10604;BME280;5349;41.554;23.274;2023-04-06T04:37:19;99201.53;;;5.03;100.00
10604;BME280;5349;41.554;23.274;2023-04-06T04:39:46;99193.88;;;5.40;100.00
10604;BME280;5349;41.554;23.274;2023-04-06T04:42:13;99198.84;;;5.43;100.00
10604;BME280;5349;41.554;23.274;2023-04-06T04:44:41;99207.72;;;5.50;100.00
10604;BME280;5349;41.554;23.274;2023-04-06T04:47:08;99205.41;;;5.55;92.89
10604;BME280;5349;41.554;23.274;2023-04-06T04:49:36;99212.41;;;5.24;89.33
10604;BME280;5349;41.554;23.274;2023-04-06T04:52:03;99209.78;;;5.08;90.24
10604;BME280;5349;41.554;23.274;2023-04-06T04:54:30;99208.47;;;5.20;85.12
10604;BME280;5349;41.554;23.274;2023-04-06T04:56:56;99212.41;;;5.24;89.50
10604;BME280;5349;41.554;23.274;2023-04-06T04:59:23;99207.97;;;5.09;100.00
10604;BME280;5349;41.554;23.274;2023-04-06T05:01:50;99207.78;;;4.86;87.96
10604;BME280;5349;41.554;23.274;2023-04-06T05:04:17;99222.66;;;4.79;85.85
10604;BME280;5349;41.554;23.274;2023-04-06T05:06:45;99225.59;;;4.53;85.96
10604;BME280;5349;41.554;23.274;2023-04-06T05:09:12;99221.97;;;4.54;86.99
10604;BME280;5349;41.554;23.274;2023-04-06T05:11:39;99216.34;;;4.49;87.17
10604;BME280;5349;41.554;23.274;2023-04-06T05:14:06;99206.59;;;4.41;87.22
10604;BME280;5349;41.554;23.274;2023-04-06T05:16:34;99216.66;;;4.38;86.79
10604;BME280;5349;41.554;23.274;2023-04-06T05:19:01;99221.09;;;4.37;86.18
10604;BME280;5349;41.554;23.274;2023-04-06T05:21:28;99219.31;;;4.38;87.88
10604;BME280;5349;41.554;23.274;2023-04-06T05:23:56;99212.38;;;4.45;98.90
10604;BME280;5349;41.554;23.274;2023-04-06T05:26:24;99213.72;;;4.49;100.00
10604;BME280;5349;41.554;23.274;2023-04-06T05:28:51;99220.28;;;4.37;100.00
10604;BME280;5349;41.554;23.274;2023-04-06T05:31:17;99211.38;;;4.38;100.00
10604;BME280;5349;41.554;23.274;2023-04-06T05:33:44;99220.78;;;4.40;100.00
10604;BME280;5349;41.554;23.274;2023-04-06T05:36:11;99221.81;;;4.63;100.00
10604;BME280;5349;41.554;23.274;2023-04-06T05:38:38;99216.72;;;4.70;100.00
10604;BME280;5349;41.554;23.274;2023-04-06T05:41:06;99210.09;;;4.81;100.00
10604;BME280;5349;41.554;23.274;2023-04-06T05:43:33;99216.06;;;4.99;100.00
10604;BME280;5349;41.554;23.274;2023-04-06T05:46:00;99210.25;;;5.36;96.64
10604;BME280;5349;41.554;23.274;2023-04-06T05:48:27;99205.72;;;5.60;93.04
10604;BME280;5349;41.554;23.274;2023-04-06T05:50:54;99212.69;;;5.53;88.47
10604;BME280;5349;41.554;23.274;2023-04-06T05:53:21;99219.91;;;5.75;86.56
10604;BME280;5349;41.554;23.274;2023-04-06T05:55:48;99220.19;;;5.96;83.69
10604;BME280;5349;41.554;23.274;2023-04-06T05:58:16;99211.69;;;6.39;77.60
10604;BME280;5349;41.554;23.274;2023-04-06T06:00:43;99206.84;;;6.50;74.85
10604;BME280;5349;41.554;23.274;2023-04-06T06:03:12;99205.50;;;6.77;72.43
10604;BME280;5349;41.554;23.274;2023-04-06T06:05:40;99205.44;;;6.85;72.06
10604;BME280;5349;41.554;23.274;2023-04-06T06:08:07;99212.59;;;6.99;69.18
10604;BME280;5349;41.554;23.274;2023-04-06T06:10:34;99199.22;;;6.78;66.37
10604;BME280;5349;41.554;23.274;2023-04-06T06:13:01;99205.16;;;6.80;65.84
10604;BME280;5349;41.554;23.274;2023-04-06T06:15:29;99199.69;;;6.96;65.29
10604;BME280;5349;41.554;23.274;2023-04-06T06:17:56;99205.97;;;7.39;64.65
10604;BME280;5349;41.554;23.274;2023-04-06T06:20:23;99197.47;;;7.87;60.86
10604;BME280;5349;41.554;23.274;2023-04-06T06:22:50;99198.03;;;7.83;61.30
10604;BME280;5349;41.554;23.274;2023-04-06T06:25:16;99194.72;;;7.95;56.84
10604;BME280;5349;41.554;23.274;2023-04-06T06:27:43;99203.22;;;7.62;56.34
10604;BME280;5349;41.554;23.274;2023-04-06T06:30:11;99191.13;;;7.30;57.84
10604;BME280;5349;41.554;23.274;2023-04-06T06:32:39;99195.53;;;7.52;57.33
10604;BME280;5349;41.554;23.274;2023-04-06T06:35:06;99196.97;;;7.26;57.90
10604;BME280;5349;41.554;23.274;2023-04-06T06:37:33;99192.78;;;7.31;57.64
10604;BME280;5349;41.554;23.274;2023-04-06T06:40:00;99195.69;;;7.22;57.67
10604;BME280;5349;41.554;23.274;2023-04-06T06:42:27;99195.47;;;7.09;57.54
10604;BME280;5349;41.554;23.274;2023-04-06T06:44:54;99198.00;;;7.39;58.34
10604;BME280;5349;41.554;23.274;2023-04-06T06:47:21;99187.22;;;7.70;56.80
10604;BME280;5349;41.554;23.274;2023-04-06T06:49:49;99193.63;;;7.75;56.17
10604;BME280;5349;41.554;23.274;2023-04-06T06:52:16;99188.03;;;7.56;55.80
10604;BME280;5349;41.554;23.274;2023-04-06T06:54:43;99189.97;;;7.62;56.41
10604;BME280;5349;41.554;23.274;2023-04-06T06:57:10;99185.00;;;8.02;57.26
10604;BME280;5349;41.554;23.274;2023-04-06T06:59:37;99188.47;;;8.03;56.08
10604;BME280;5349;41.554;23.274;2023-04-06T07:02:04;99180.03;;;8.14;54.98
10604;BME280;5349;41.554;23.274;2023-04-06T07:04:30;99193.25;;;7.78;54.56
10604;BME280;5349;41.554;23.274;2023-04-06T07:06:59;99188.22;;;7.83;55.12
10604;BME280;5349;41.554;23.274;2023-04-06T07:09:26;99185.00;;;8.31;54.93
10604;BME280;5349;41.554;23.274;2023-04-06T07:11:53;99185.16;;;8.15;54.57
10604;BME280;5349;41.554;23.274;2023-04-06T07:14:22;99185.28;;;8.22;54.15
10604;BME280;5349;41.554;23.274;2023-04-06T07:16:49;99183.75;;;8.69;53.72
10604;BME280;5349;41.554;23.274;2023-04-06T07:19:16;99196.63;;;8.65;53.85
10604;BME280;5349;41.554;23.274;2023-04-06T07:21:43;99176.84;;;8.18;53.85
10604;BME280;5349;41.554;23.274;2023-04-06T07:24:11;99181.03;;;8.62;54.35
10604;BME280;5349;41.554;23.274;2023-04-06T07:26:38;99177.75;;;8.60;53.39
10604;BME280;5349;41.554;23.274;2023-04-06T07:29:05;99198.25;;;8.87;53.79
10604;BME280;5349;41.554;23.274;2023-04-06T07:31:32;99184.13;;;8.66;54.27
10604;BME280;5349;41.554;23.274;2023-04-06T07:34:00;99187.81;;;8.65;52.59
10604;BME280;5349;41.554;23.274;2023-04-06T07:36:27;99176.88;;;8.39;53.68
10604;BME280;5349;41.554;23.274;2023-04-06T07:38:54;99173.06;;;8.62;53.81
10604;BME280;5349;41.554;23.274;2023-04-06T07:41:22;99174.91;;;8.83;52.73
10604;BME280;5349;41.554;23.274;2023-04-06T07:43:50;99167.84;;;8.96;52.10
10604;BME280;5349;41.554;23.274;2023-04-06T07:46:17;99174.91;;;9.31;51.24
10604;BME280;5349;41.554;23.274;2023-04-06T07:48:43;99156.06;;;9.33;51.33
10604;BME280;5349;41.554;23.274;2023-04-06T07:51:10;99164.03;;;9.05;51.76
10604;BME280;5349;41.554;23.274;2023-04-06T07:53:39;99151.25;;;9.76;52.40
10604;BME280;5349;41.554;23.274;2023-04-06T07:56:06;99155.56;;;9.77;50.05
10604;BME280;5349;41.554;23.274;2023-04-06T07:58:34;99152.25;;;9.42;50.86
10604;BME280;5349;41.554;23.274;2023-04-06T08:01:01;99146.06;;;9.68;50.73
10604;BME280;5349;41.554;23.274;2023-04-06T08:03:29;99136.88;;;10.11;51.31
10604;BME280;5349;41.554;23.274;2023-04-06T08:05:55;99140.06;;;10.60;49.60
10604;BME280;5349;41.554;23.274;2023-04-06T08:08:22;99143.16;;;10.64;48.04
10604;BME280;5349;41.554;23.274;2023-04-06T08:10:49;99146.38;;;10.40;48.64
10604;BME280;5349;41.554;23.274;2023-04-06T08:13:16;99134.47;;;10.36;47.89
10604;BME280;5349;41.554;23.274;2023-04-06T08:15:45;99140.94;;;10.74;48.69
10604;BME280;5349;41.554;23.274;2023-04-06T08:18:12;99128.78;;;10.58;47.44
10604;BME280;5349;41.554;23.274;2023-04-06T08:20:39;99125.47;;;10.37;47.55
10604;BME280;5349;41.554;23.274;2023-04-06T08:23:06;99117.09;;;10.53;47.95
10604;BME280;5349;41.554;23.274;2023-04-06T08:25:35;99125.94;;;10.66;47.60
10604;BME280;5349;41.554;23.274;2023-04-06T08:28:02;99116.91;;;11.12;47.54
10604;BME280;5349;41.554;23.274;2023-04-06T08:30:29;99120.38;;;11.39;47.75
10604;BME280;5349;41.554;23.274;2023-04-06T08:32:57;99109.53;;;10.95;46.38
10604;BME280;5349;41.554;23.274;2023-04-06T08:35:25;99102.09;;;10.39;47.26
10604;BME280;5349;41.554;23.274;2023-04-06T08:37:52;99106.63;;;10.38;48.76
10604;BME280;5349;41.554;23.274;2023-04-06T08:40:19;99093.91;;;10.40;48.28
10604;BME280;5349;41.554;23.274;2023-04-06T08:42:52;99088.38;;;10.35;48.17
10604;BME280;5349;41.554;23.274;2023-04-06T08:45:21;99098.38;;;10.27;47.94
10604;BME280;5349;41.554;23.274;2023-04-06T08:47:48;99084.53;;;10.89;47.99
10604;BME280;5349;41.554;23.274;2023-04-06T08:50:18;99090.97;;;11.52;46.34
10604;BME280;5349;41.554;23.274;2023-04-06T08:52:47;99071.44;;;11.71;47.45
10604;BME280;5349;41.554;23.274;2023-04-06T08:55:14;99075.81;;;12.03;44.96
10604;BME280;5349;41.554;23.274;2023-04-06T08:57:42;99079.00;;;11.87;44.17
10604;BME280;5349;41.554;23.274;2023-04-06T09:00:10;99078.25;;;11.54;43.82
10604;BME280;5349;41.554;23.274;2023-04-06T09:02:38;99083.19;;;11.44;44.92
10604;BME280;5349;41.554;23.274;2023-04-06T09:05:07;99078.53;;;11.20;46.36
10604;BME280;5349;41.554;23.274;2023-04-06T09:07:36;99071.38;;;11.01;45.31
10604;BME280;5349;41.554;23.274;2023-04-06T09:10:04;99057.41;;;11.12;46.71
10604;BME280;5349;41.554;23.274;2023-04-06T09:12:31;99060.44;;;11.28;44.25
10604;BME280;5349;41.554;23.274;2023-04-06T09:14:59;99062.84;;;11.56;44.16
10604;BME280;5349;41.554;23.274;2023-04-06T09:17:28;99065.06;;;11.72;43.48
10604;BME280;5349;41.554;23.274;2023-04-06T09:19:56;99069.66;;;11.58;43.97
10604;BME280;5349;41.554;23.274;2023-04-06T09:22:23;99060.91;;;11.89;45.99
10604;BME280;5349;41.554;23.274;2023-04-06T09:24:54;99056.66;;;12.12;42.73
10604;BME280;5349;41.554;23.274;2023-04-06T09:27:30;99042.63;;;12.16;44.24
10604;BME280;5349;41.554;23.274;2023-04-06T09:30:03;99041.88;;;12.65;42.63
10604;BME280;5349;41.554;23.274;2023-04-06T09:32:31;99030.94;;;11.74;43.64
10604;BME280;5349;41.554;23.274;2023-04-06T09:35:05;99050.25;;;12.50;42.24
10604;BME280;5349;41.554;23.274;2023-04-06T09:37:33;99018.56;;;12.47;42.97
10604;BME280;5349;41.554;23.274;2023-04-06T09:40:04;99030.81;;;12.37;42.74
10604;BME280;5349;41.554;23.274;2023-04-06T09:42:32;99035.13;;;11.57;42.79
10604;BME280;5349;41.554;23.274;2023-04-06T09:44:59;99032.38;;;11.00;45.27
10604;BME280;5349;41.554;23.274;2023-04-06T09:47:26;99025.97;;;11.84;44.00
10604;BME280;5349;41.554;23.274;2023-04-06T09:49:57;99021.66;;;12.20;42.75
10604;BME280;5349;41.554;23.274;2023-04-06T09:52:26;99008.31;;;11.76;42.39
10604;BME280;5349;41.554;23.274;2023-04-06T09:54:56;99012.44;;;12.40;42.08
10604;BME280;5349;41.554;23.274;2023-04-06T09:57:30;99006.41;;;13.00;43.39
10604;BME280;5349;41.554;23.274;2023-04-06T10:00:03;99003.13;;;13.52;42.15
10604;BME280;5349;41.554;23.274;2023-04-06T10:02:41;98999.56;;;13.76;39.00
10604;BME280;5349;41.554;23.274;2023-04-06T10:05:16;98984.19;;;13.83;37.26
10604;BME280;5349;41.554;23.274;2023-04-06T10:07:48;98984.16;;;14.19;37.10
10604;BME280;5349;41.554;23.274;2023-04-06T10:10:17;98977.84;;;14.25;36.19
10604;BME280;5349;41.554;23.274;2023-04-06T10:12:47;98971.41;;;14.89;38.41
10604;BME280;5349;41.554;23.274;2023-04-06T10:15:15;98961.69;;;15.11;35.95
10604;BME280;5349;41.554;23.274;2023-04-06T10:17:42;98976.38;;;14.52;36.12
10604;BME280;5349;41.554;23.274;2023-04-06T10:20:14;98965.00;;;14.27;37.39
10604;BME280;5349;41.554;23.274;2023-04-06T10:22:45;98957.97;;;13.85;37.25
10604;BME280;5349;41.554;23.274;2023-04-06T10:25:26;98962.00;;;14.05;37.52
10604;BME280;5349;41.554;23.274;2023-04-06T10:28:00;98967.81;;;13.91;38.58
10604;BME280;5349;41.554;23.274;2023-04-06T10:30:28;98962.16;;;13.81;38.29
10604;BME280;5349;41.554;23.274;2023-04-06T10:32:55;98956.34;;;13.84;37.55
10604;BME280;5349;41.554;23.274;2023-04-06T10:35:22;98951.59;;;14.15;37.09
10604;BME280;5349;41.554;23.274;2023-04-06T10:38:01;98952.28;;;13.81;37.45
10604;BME280;5349;41.554;23.274;2023-04-06T10:40:28;98943.66;;;13.79;37.61
10604;BME280;5349;41.554;23.274;2023-04-06T10:43:08;98921.59;;;13.77;36.83
10604;BME280;5349;41.554;23.274;2023-04-06T10:45:35;98937.94;;;13.87;36.97
10604;BME280;5349;41.554;23.274;2023-04-06T10:48:13;98937.75;;;14.41;36.88
10604;BME280;5349;41.554;23.274;2023-04-06T10:50:41;98934.59;;;14.03;36.28
10604;BME280;5349;41.554;23.274;2023-04-06T10:53:08;98941.72;;;13.68;37.44
10604;BME280;5349;41.554;23.274;2023-04-06T10:55:38;98918.41;;;13.39;37.23
10604;BME280;5349;41.554;23.274;2023-04-06T10:58:07;98937.66;;;14.07;37.44
10604;BME280;5349;41.554;23.274;2023-04-06T11:00:35;98936.09;;;13.88;36.46
10604;BME280;5349;41.554;23.274;2023-04-06T11:03:02;98929.72;;;13.71;36.57
10604;BME280;5349;41.554;23.274;2023-04-06T11:05:29;98921.75;;;13.82;36.80
10604;BME280;5349;41.554;23.274;2023-04-06T11:07:56;98920.91;;;14.23;36.54
10604;BME280;5349;41.554;23.274;2023-04-06T11:10:23;98910.78;;;14.59;35.76
10604;BME280;5349;41.554;23.274;2023-04-06T11:12:54;98916.50;;;14.40;35.96
10604;BME280;5349;41.554;23.274;2023-04-06T11:15:22;98912.78;;;14.41;36.71
10604;BME280;5349;41.554;23.274;2023-04-06T11:17:49;98922.50;;;14.01;35.74
10604;BME280;5349;41.554;23.274;2023-04-06T11:20:16;98904.50;;;13.90;35.94
10604;BME280;5349;41.554;23.274;2023-04-06T11:22:49;98906.56;;;13.76;36.59
10604;BME280;5349;41.554;23.274;2023-04-06T11:25:17;98908.31;;;13.53;35.70
10604;BME280;5349;41.554;23.274;2023-04-06T11:27:45;98901.78;;;13.78;35.86
10604;BME280;5349;41.554;23.274;2023-04-06T11:30:13;98901.81;;;13.31;36.40
10604;BME280;5349;41.554;23.274;2023-04-06T11:32:42;98899.75;;;13.15;37.01
10604;BME280;5349;41.554;23.274;2023-04-06T11:35:11;98897.06;;;13.33;36.95
10604;BME280;5349;41.554;23.274;2023-04-06T11:37:39;98895.56;;;13.37;36.79
10604;BME280;5349;41.554;23.274;2023-04-06T11:40:08;98893.75;;;13.49;36.81
10604;BME280;5349;41.554;23.274;2023-04-06T11:42:35;98888.28;;;13.85;37.13
10604;BME280;5349;41.554;23.274;2023-04-06T11:45:03;98888.50;;;13.54;36.91
10604;BME280;5349;41.554;23.274;2023-04-06T11:47:32;98894.16;;;13.34;37.76
10604;BME280;5349;41.554;23.274;2023-04-06T11:50:07;98887.09;;;13.22;36.98
10604;BME280;5349;41.554;23.274;2023-04-06T11:52:34;98890.88;;;13.32;37.35
10604;BME280;5349;41.554;23.274;2023-04-06T11:55:10;98881.72;;;13.69;37.05
10604;BME280;5349;41.554;23.274;2023-04-06T11:57:38;98872.78;;;13.87;36.84
10604;BME280;5349;41.554;23.274;2023-04-06T12:00:06;98881.03;;;14.15;37.27
10604;BME280;5349;41.554;23.274;2023-04-06T12:02:33;98863.53;;;14.24;36.19
10604;BME280;5349;41.554;23.274;2023-04-06T12:05:00;98868.91;;;14.24;36.33
10604;BME280;5349;41.554;23.274;2023-04-06T12:07:29;98870.16;;;14.10;36.83
10604;BME280;5349;41.554;23.274;2023-04-06T12:09:56;98862.03;;;14.28;36.04
10604;BME280;5349;41.554;23.274;2023-04-06T12:12:23;98866.50;;;13.93;36.81
10604;BME280;5349;41.554;23.274;2023-04-06T12:14:51;98858.28;;;13.65;37.37
10604;BME280;5349;41.554;23.274;2023-04-06T12:17:18;98856.44;;;13.77;36.54
10604;BME280;5349;41.554;23.274;2023-04-06T12:19:45;98840.16;;;13.90;35.92
10604;BME280;5349;41.554;23.274;2023-04-06T12:22:12;98857.53;;;13.99;36.02
10604;BME280;5349;41.554;23.274;2023-04-06T12:24:41;98852.09;;;13.64;36.77
10604;BME280;5349;41.554;23.274;2023-04-06T12:27:08;98860.94;;;13.65;37.33
10604;BME280;5349;41.554;23.274;2023-04-06T12:29:37;98814.25;;;13.32;36.68
10604;BME280;5349;41.554;23.274;2023-04-06T12:32:04;98850.50;;;13.86;36.56
10604;BME280;5349;41.554;23.274;2023-04-06T12:34:31;98854.53;;;13.66;37.04
10604;BME280;5349;41.554;23.274;2023-04-06T12:36:58;98849.81;;;13.50;37.34
10604;BME280;5349;41.554;23.274;2023-04-06T12:39:25;98839.63;;;13.70;37.12
10604;BME280;5349;41.554;23.274;2023-04-06T12:41:55;98837.22;;;13.80;37.57
10604;BME280;5349;41.554;23.274;2023-04-06T12:44:22;98829.75;;;13.70;37.24
10604;BME280;5349;41.554;23.274;2023-04-06T12:46:49;98825.66;;;13.68;36.87
10604;BME280;5349;41.554;23.274;2023-04-06T12:49:17;98823.28;;;13.60;37.27
10604;BME280;5349;41.554;23.274;2023-04-06T12:51:45;98811.97;;;13.99;36.63
10604;BME280;5349;41.554;23.274;2023-04-06T12:54:11;98807.00;;;14.25;36.77
10604;BME280;5349;41.554;23.274;2023-04-06T12:56:39;98802.88;;;14.11;36.38
10604;BME280;5349;41.554;23.274;2023-04-06T12:59:07;98815.84;;;14.14;37.15
10604;BME280;5349;41.554;23.274;2023-04-06T13:01:34;98817.56;;;14.09;37.23
10604;BME280;5349;41.554;23.274;2023-04-06T13:04:01;98806.63;;;14.22;37.36
10604;BME280;5349;41.554;23.274;2023-04-06T13:06:28;98804.03;;;14.50;37.55
10604;BME280;5349;41.554;23.274;2023-04-06T13:08:55;98804.97;;;14.44;37.44
10604;BME280;5349;41.554;23.274;2023-04-06T13:11:22;98815.94;;;14.08;37.54